Time;durP1;ratioP1;P1;durP2;ratioP2;P2;SDS_P1;SDS_P2;PMS_P1;PMS_P2;Temp;Humidity;BMP_temperature;BMP_pressure;BME280_temperature;BME280_humidity;BME280_pressure;Samples;Min_cycle;Max_cycle;Signal;HPM_P1;HPM_P2
2021/05/08 06:26:21;;;;;;;3.05;2.50;;;16.20;52.10;;;;;;2193664;23;20740;-93
2021/05/08 06:28:49;;;;;;;2.80;2.50;;;16.80;49.00;;;;;;4917781;29;20464;-96
2021/05/08 06:32:13;;;;;;;3.22;2.10;;;17.20;46.60;;;;;;4939106;29;20464;-96
2021/05/08 06:35:17;;;;;;;2.20;2.00;;;17.20;44.70;;;;;;4827942;29;20475;-96
2021/05/08 06:37:51;;;;;;;3.10;2.13;;;17.30;43.00;;;;;;4809811;29;20461;-94
2021/05/08 06:40:18;;;;;;;2.47;2.05;;;16.70;44.20;;;;;;4811050;29;20754;-94
2021/05/08 06:42:45;;;;;;;2.22;2.00;;;16.40;45.80;;;;;;4809847;29;21002;-96
2021/05/08 06:45:11;;;;;;;2.88;2.08;;;16.50;46.30;;;;;;4811832;29;20530;-96
2021/05/08 06:47:39;;;;;;;2.33;2.00;;;17.00;45.70;;;;;;4808452;29;20443;-93
2021/05/08 06:50:10;;;;;;;2.50;2.30;;;16.80;44.80;;;;;;4814526;29;20432;-96
2021/05/08 06:52:38;;;;;;;3.00;2.33;;;16.80;46.10;;;;;;4809984;29;20454;-96
2021/05/08 06:55:05;;;;;;;3.00;2.40;;;16.30;45.90;;;;;;4810236;29;20442;-93
2021/05/08 06:57:33;;;;;;;3.00;2.40;;;15.80;46.20;;;;;;4807865;29;20467;-92
2021/05/08 07:00:03;;;;;;;2.83;2.25;;;15.20;48.40;;;;;;4810704;29;20439;-96
2021/05/08 07:02:37;;;;;;;2.77;2.47;;;15.00;48.90;;;;;;4807942;29;20444;-91
2021/05/08 07:05:11;;;;;;;2.85;2.40;;;14.40;51.40;;;;;;4807492;29;20443;-94
2021/05/08 07:07:58;;;;;;;3.27;2.83;;;14.20;50.60;;;;;;4811074;29;20442;-94
2021/05/08 07:46:51;;;;;;;4.40;3.42;;;11.10;63.60;;;;;;5340157;23;20513;-94
2021/05/08 07:50:07;;;;;;;6.20;3.77;;;10.90;64.30;;;;;;4989523;28;20427;-94
2021/05/08 08:23:51;;;;;;;6.43;3.80;;;9.90;81.00;;;;;;5942853;22;20388;-95
2021/05/08 08:29:10;;;;;;;6.18;3.83;;;10.20;76.00;;;;;;4903679;29;20431;-95
2021/05/08 09:20:14;;;;;;;6.27;3.77;;;12.60;62.90;;;;;;4935367;29;20418;-90
2021/05/08 09:22:43;;;;;;;7.47;4.35;;;12.80;64.30;;;;;;4920154;29;20431;-89
2021/05/08 09:25:15;;;;;;;8.55;3.90;;;12.90;63.10;;;;;;4920501;29;20457;-90
2021/05/08 09:27:42;;;;;;;8.10;3.95;;;12.90;60.00;;;;;;4936180;29;20423;-89
2021/05/08 09:30:42;;;;;;;6.20;3.67;;;12.70;63.50;;;;;;4920348;29;20439;-87
2021/05/08 09:33:09;;;;;;;7.82;3.40;;;11.90;63.70;;;;;;4918421;29;20435;-88
2021/05/08 09:35:36;;;;;;;6.15;3.70;;;11.30;61.00;;;;;;4936629;29;20458;-89
2021/05/08 09:38:15;;;;;;;5.28;3.70;;;11.50;64.20;;;;;;4920327;29;20447;-90
2021/05/08 09:40:44;;;;;;;6.32;3.67;;;11.50;66.50;;;;;;4920327;29;20435;-89
2021/05/08 09:43:18;;;;;;;6.82;3.83;;;11.30;65.80;;;;;;4920377;29;20500;-90
2021/05/08 09:45:47;;;;;;;6.53;3.33;;;11.10;68.00;;;;;;4917017;29;20432;-91
2021/05/08 09:48:27;;;;;;;6.27;3.67;;;11.50;69.80;;;;;;4920197;29;20451;-90
2021/05/08 09:51:26;;;;;;;4.63;3.30;;;11.60;66.10;;;;;;4921827;29;20568;-91
2021/05/08 09:54:13;;;;;;;6.78;3.25;;;11.70;66.60;;;;;;4919896;29;20906;-91
2021/05/08 09:56:49;;;;;;;4.97;3.20;;;11.30;64.40;;;;;;4920286;29;20435;-90
2021/05/08 09:59:36;;;;;;;5.07;2.80;;;11.30;62.60;;;;;;4920452;29;20458;-92
2021/05/08 10:02:02;;;;;;;5.28;3.03;;;11.70;62.20;;;;;;4920337;29;20431;-91
2021/05/08 10:04:31;;;;;;;4.82;2.90;;;11.60;63.60;;;;;;4919769;29;20966;-90
2021/05/08 10:07:12;;;;;;;5.63;3.05;;;11.50;63.30;;;;;;4920716;29;20419;-91
2021/05/08 10:09:40;;;;;;;4.05;2.50;;;11.50;68.90;;;;;;4920296;29;20440;-91
2021/05/08 10:12:12;;;;;;;4.53;2.83;;;11.40;64.20;;;;;;4919861;29;20914;-91
2021/05/08 10:14:40;;;;;;;5.60;2.70;;;11.50;68.70;;;;;;4919088;29;20435;-90
2021/05/08 10:17:25;;;;;;;5.38;2.80;;;11.40;71.20;;;;;;4929304;29;20455;-91
2021/05/08 10:20:11;;;;;;;5.88;3.08;;;11.50;65.40;;;;;;4934827;29;20431;-91
2021/05/08 10:22:42;;;;;;;3.33;2.75;;;11.90;65.70;;;;;;4939524;29;20439;-92
2021/05/08 10:25:09;;;;;;;6.18;2.60;;;11.80;65.50;;;;;;4938693;29;20998;-92
2021/05/08 15:53:42;;;;;;;6.15;2.35;;;18.10;47.40;;;;;;4968036;29;20445;-96
2021/05/08 15:56:51;;;;;;;3.33;2.10;;;18.30;45.10;;;;;;4975398;28;20425;-96
2021/05/08 16:00:13;;;;;;;6.35;2.40;;;18.40;45.30;;;;;;4956399;28;20421;-96
2021/05/08 16:02:42;;;;;;;4.47;2.30;;;18.30;45.60;;;;;;4940661;29;20429;-95
2021/05/08 16:05:10;;;;;;;2.80;2.08;;;18.80;45.30;;;;;;4937969;29;20847;-90
2021/05/08 16:07:37;;;;;;;4.47;1.90;;;18.80;45.10;;;;;;4937159;29;20431;-93
2021/05/08 16:10:06;;;;;;;7.03;2.50;;;18.00;43.10;;;;;;4937420;29;20435;-93
2021/05/08 16:20:40;;;;;;;4.43;2.30;;;14.30;54.00;;;;;;5807565;23;20751;-96
2021/05/08 16:44:26;;;;;;;6.88;2.72;;;13.20;56.30;;;;;;5791151;23;20467;-96
2021/05/08 16:47:32;;;;;;;4.68;2.55;;;13.10;57.20;;;;;;4979954;28;20455;-95
2021/05/08 16:50:21;;;;;;;4.95;2.55;;;13.00;57.50;;;;;;4964285;28;20419;-95
2021/05/08 16:53:44;;;;;;;4.25;2.58;;;13.00;57.60;;;;;;4978109;28;20400;-96
2021/05/08 17:29:00;;;;;;;4.53;2.47;;;12.50;66.40;;;;;;3357584;23;20675;-96
2021/05/08 19:33:57;;;;;;;7.05;2.33;;;7.20;99.90;;;;;;5091197;23;20442;-94
2021/05/08 19:37:39;;;;;;;3.60;1.90;;;7.20;99.90;;;;;;4946184;28;20418;-95
2021/05/08 19:41:43;;;;;;;3.05;2.00;;;7.30;96.50;;;;;;4892754;29;20409;-95
2021/05/08 19:45:16;;;;;;;3.60;1.77;;;7.50;96.60;;;;;;4853101;29;20429;-94
2021/05/08 20:24:02;;;;;;;5.03;2.60;;;6.50;99.90;;;;;;4909355;29;20478;-94
2021/05/08 20:31:18;;;;;;;4.90;3.27;;;6.20;99.90;;;;;;4854552;29;20456;-93
2021/05/08 20:35:22;;;;;;;7.50;3.38;;;6.20;99.90;;;;;;4796405;29;20488;-92
